| time (UTC) | temp C | wind direction | speed KPH | gust KPH | rain 1hr cm | rain 24hr cm | rain mn cm | humidity % | barometer mb |
| 20260507174550 | 16 | 279 | 3.2 | 16.1 | 0.00 | 0.76 | 0.58 | 49 | 1002.0 |
| 20260507173044 | 16 | 242 | 4.8 | 14.5 | 0.00 | 0.76 | 0.58 | 53 | 1002.1 |
| 20260507171549 | 15 | 329 | 4.8 | 17.7 | 0.00 | 0.76 | 0.58 | 50 | 1002.2 |
| 20260507170041 | 15 | 320 | 9.7 | 17.7 | 0.00 | 0.76 | 0.58 | 52 | 1002.4 |
| 20260507164539 | 14 | 237 | 8.0 | 17.7 | 0.00 | 0.76 | 0.58 | 54 | 1002.4 |
| 20260507163037 | 15 | 101 | 4.8 | 14.5 | 0.00 | 0.76 | 0.58 | 58 | 1002.6 |
| 20260507161539 | 14 | 355 | 4.8 | 16.1 | 0.00 | 0.76 | 0.58 | 57 | 1002.9 |
| 20260507160034 | 13 | 234 | 6.4 | 19.3 | 0.00 | 0.76 | 0.58 | 61 | 1003.1 |
| 20260507154536 | 13 | 234 | 3.2 | 22.5 | 0.00 | 0.76 | 0.58 | 56 | 1003.2 |
| 20260507153039 | 13 | 259 | 9.7 | 20.9 | 0.00 | 0.76 | 0.58 | 61 | 1003.3 |
| 20260507151526 | 13 | 5 | 6.4 | 14.5 | 0.00 | 0.76 | 0.58 | 67 | 1003.4 |
| 20260507150026 | 13 | 275 | 3.2 | 12.9 | 0.00 | 0.76 | 0.58 | 70 | 1003.8 |
| 20260507144521 | 12 | 267 | 4.8 | 14.5 | 0.00 | 0.76 | 0.58 | 73 | 1004.0 |
| 20260507143025 | 12 | 263 | 9.7 | 19.3 | 0.00 | 0.76 | 0.58 | 73 | 1003.9 |
| 20260507141518 | 12 | 282 | 6.4 | 16.1 | 0.00 | 0.76 | 0.58 | 75 | 1004.3 |
| 20260507140015 | 11 | 326 | 3.2 | 14.5 | 0.00 | 0.76 | 0.58 | 80 | 1004.7 |
| 20260507134515 | 10 | 276 | 3.2 | 14.5 | 0.00 | 0.76 | 0.58 | 81 | 1004.2 |
| 20260507133013 | 10 | 255 | 4.8 | 16.1 | 0.00 | 0.76 | 0.58 | 83 | 1004.3 |
| 20260507131518 | 10 | 290 | 4.8 | 16.1 | 0.00 | 0.76 | 0.58 | 85 | 1004.2 |
| 20260507130021 | 10 | 270 | 3.2 | 12.9 | 0.00 | 0.76 | 0.58 | 87 | 1004.1 |
| 20260507124511 | 9 | 232 | 0.0 | 8.0 | 0.00 | 0.79 | 0.58 | 90 | 1003.9 |
| 20260507123009 | 9 | 288 | 3.2 | 12.9 | 0.00 | 0.79 | 0.58 | 90 | 1004.7 |
| 20260507121507 | 8 | 293 | 1.6 | 12.9 | 0.00 | 0.79 | 0.58 | 91 | 1005.1 |
| 20260507120006 | 8 | 268 | 0.0 | 6.4 | 0.00 | 0.79 | 0.58 | 92 | 1004.8 |
| 20260507114504 | 8 | 318 | 4.8 | 16.1 | 0.00 | 0.79 | 0.58 | 92 | 1004.6 |
| 20260507113000 | 8 | 281 | 1.6 | 8.0 | 0.00 | 0.79 | 0.58 | 95 | 1004.4 |
| 20260507111559 | 8 | 263 | 1.6 | 6.4 | 0.00 | 0.79 | 0.58 | 95 | 1003.9 |
| 20260507110057 | 9 | 350 | 3.2 | 9.7 | 0.00 | 0.79 | 0.58 | 95 | 1003.9 |
| 20260507104556 | 9 | 289 | 3.2 | 8.0 | 0.00 | 0.79 | 0.58 | 95 | 1003.9 |
| 20260507103056 | 9 | 294 | 1.6 | 6.4 | 0.00 | 0.79 | 0.58 | 95 | 1003.9 |
| 20260507101557 | 9 | 261 | 3.2 | 6.4 | 0.00 | 0.79 | 0.58 | 95 | 1003.7 |
| 20260507100054 | 9 | 286 | 0.0 | 6.4 | 0.00 | 0.79 | 0.58 | 95 | 1004.1 |
| 20260507094553 | 9 | 331 | 1.6 | 11.3 | 0.00 | 0.79 | 0.58 | 95 | 1003.8 |
| 20260507093055 | 9 | 292 | 0.0 | 6.4 | 0.00 | 0.79 | 0.58 | 95 | 1002.6 |
| 20260507091551 | 9 | 284 | 3.2 | 8.0 | 0.00 | 0.79 | 0.58 | 95 | 1003.0 |
| 20260507090049 | 9 | 279 | 3.2 | 9.7 | 0.03 | 0.79 | 0.58 | 95 | 1003.4 |
| 20260507084550 | 10 | 268 | 4.8 | 12.9 | 0.03 | 0.79 | 0.58 | 95 | 1002.9 |
| 20260507083047 | 10 | 46 | 1.6 | 9.7 | 0.03 | 0.79 | 0.58 | 95 | 1002.9 |
| 20260507081545 | 10 | 283 | 3.2 | 9.7 | 0.13 | 0.79 | 0.58 | 96 | 1002.8 |
| 20260507080046 | 10 | 257 | 0.0 | 8.0 | 0.30 | 0.76 | 0.56 | 96 | 1002.4 |
| 20260507074545 | 10 | 234 | 1.6 | 4.8 | 0.46 | 0.76 | 0.56 | 96 | 1002.0 |
| 20260507073043 | 10 | 269 | 0.0 | 4.8 | 0.46 | 0.76 | 0.56 | 95 | 1002.0 |
| 20260507071601 | 10 | 200 | 4.8 | 12.9 | 0.36 | 0.66 | 0.46 | 95 | 1002.6 |
| 20260507070040 | 10 | 198 | 4.8 | 16.1 | 0.15 | 0.46 | 0.25 | 95 | 1002.7 |
| 20260507064539 | 10 | 215 | 4.8 | 17.7 | 0.00 | 0.30 | 0.10 | 95 | 1002.3 |
| 20260507063043 | 10 | 218 | 9.7 | 17.7 | 0.03 | 0.30 | 0.10 | 95 | 1002.2 |
| 20260507061538 | 10 | 190 | 12.9 | 20.9 | 0.05 | 0.30 | 0.10 | 95 | 1002.5 |
| 20260507060036 | 10 | 225 | 11.3 | 20.9 | 0.08 | 0.30 | 0.10 | 94 | 1002.5 |
| 20260507054531 | 11 | 200 | 14.5 | 22.5 | 0.08 | 0.30 | 0.10 | 94 | 1002.4 |
| 20260507053044 | 11 | 186 | 17.7 | 33.8 | 0.05 | 0.28 | 0.08 | 94 | 1002.5 |
| 20260507051536 | 11 | 184 | 14.5 | 25.7 | 0.03 | 0.25 | 0.05 | 94 | 1002.6 |
| 20260507050032 | 11 | 206 | 12.9 | 30.6 | 0.03 | 0.23 | 0.03 | 94 | 1002.9 |
| 20260507044526 | 11 | 200 | 12.9 | 30.6 | 0.08 | 0.23 | 0.03 | 94 | 1003.0 |
| 20260507043021 | 11 | 200 | 11.3 | 29.0 | 0.10 | 0.23 | 0.03 | 94 | 1003.3 |
| 20260507041516 | 11 | 177 | 8.0 | 30.6 | 0.08 | 0.20 | 0.00 | 94 | 1003.8 |
| 20260507040013 | 11 | 215 | 8.0 | 22.5 | 0.10 | 0.20 | 0.00 | 94 | 1003.9 |
| 20260507034526 | 12 | 207 | 11.3 | 30.6 | 0.08 | 0.15 | 0.15 | 94 | 1004.2 |
| 20260507033015 | 11 | 177 | 11.3 | 33.8 | 0.08 | 0.13 | 0.13 | 94 | 1004.1 |
| 20260507031507 | 11 | 157 | 9.7 | 30.6 | 0.10 | 0.13 | 0.13 | 93 | 1004.5 |
| 20260507030005 | 11 | 142 | 16.1 | 32.2 | 0.08 | 0.10 | 0.10 | 93 | 1004.8 |
| 20260507024504 | 11 | 189 | 11.3 | 32.2 | 0.05 | 0.08 | 0.08 | 93 | 1005.2 |
| 20260507023100 | 12 | 177 | 14.5 | 27.4 | 0.03 | 0.05 | 0.05 | 92 | 1005.8 |
| 20260507021557 | 12 | 167 | 16.1 | 22.5 | 0.00 | 0.03 | 0.03 | 91 | 1006.2 |
| 20260507020055 | 12 | 203 | 11.3 | 30.6 | 0.00 | 0.03 | 0.03 | 91 | 1006.3 |
| 20260507014602 | 12 | 182 | 17.7 | 35.4 | 0.00 | 0.03 | 0.03 | 90 | 1006.5 |
| 20260507013053 | 12 | 161 | 11.3 | 30.6 | 0.00 | 0.03 | 0.03 | 90 | 1006.8 |
| 20260507011550 | 12 | 182 | 11.3 | 30.6 | 0.00 | 0.03 | 0.03 | 90 | 1007.2 |
| 20260507010056 | 12 | 137 | 16.1 | 32.2 | 0.00 | 0.03 | 0.03 | 89 | 1007.6 |
| 20260507004554 | 12 | 182 | 11.3 | 25.7 | 0.00 | 0.03 | 0.03 | 89 | 1007.6 |
| 20260507003048 | 12 | 202 | 8.0 | 24.1 | 0.00 | 0.03 | 0.03 | 89 | 1007.9 |
| 20260507001551 | 12 | 164 | 17.7 | 32.2 | 0.00 | 0.03 | 0.03 | 89 | 1008.0 |
| 20260507000046 | 12 | 132 | 12.9 | 27.4 | 0.00 | 0.03 | 0.03 | 88 | 1007.8 |
| 20260506234545 | 12 | 168 | 11.3 | 32.2 | 0.00 | 0.03 | 0.03 | 87 | 1008.6 |
| 20260506233043 | 12 | 174 | 9.7 | 22.5 | 0.00 | 0.03 | 0.03 | 87 | 1008.3 |
| 20260506231541 | 13 | 173 | 11.3 | 20.9 | 0.00 | 0.03 | 0.03 | 86 | 1008.6 |
| 20260506230041 | 13 | 188 | 12.9 | 25.7 | 0.00 | 0.03 | 0.03 | 86 | 1008.9 |
| 20260506224540 | 13 | 185 | 12.9 | 37.0 | 0.00 | 0.03 | 0.03 | 86 | 1008.9 |
| 20260506223039 | 13 | 175 | 17.7 | 41.8 | 0.00 | 0.03 | 0.03 | 86 | 1009.0 |
| 20260506221538 | 13 | 183 | 12.9 | 29.0 | 0.00 | 0.03 | 0.03 | 86 | 1008.9 |
| 20260506220041 | 13 | 183 | 16.1 | 30.6 | 0.00 | 0.03 | 0.03 | 86 | 1009.0 |
| 20260506214548 | 13 | 225 | 9.7 | 24.1 | 0.00 | 0.03 | 0.03 | 86 | 1009.3 |
| 20260506213036 | 13 | 183 | 11.3 | 35.4 | 0.00 | 0.03 | 0.03 | 86 | 1009.5 |
| 20260506211535 | 13 | 155 | 11.3 | 25.7 | 0.00 | 0.03 | 0.03 | 86 | 1008.9 |
| 20260506210035 | 13 | 175 | 14.5 | 32.2 | 0.00 | 0.03 | 0.03 | 86 | 1008.9 |
| 20260506204538 | 13 | 130 | 6.4 | 30.6 | 0.00 | 0.03 | 0.03 | 86 | 1008.8 |
| 20260506203034 | 13 | 200 | 8.0 | 32.2 | 0.00 | 0.03 | 0.03 | 85 | 1009.1 |
| 20260506201534 | 13 | 163 | 9.7 | 25.7 | 0.00 | 0.03 | 0.03 | 85 | 1009.1 |
| 20260506200033 | 13 | 177 | 9.7 | 22.5 | 0.00 | 0.03 | 0.03 | 84 | 1009.1 |
| 20260506194533 | 13 | 184 | 11.3 | 32.2 | 0.00 | 0.03 | 0.03 | 85 | 1009.2 |
| 20260506193031 | 13 | 194 | 11.3 | 25.7 | 0.00 | 0.03 | 0.03 | 85 | 1009.2 |
| 20260506191531 | 13 | 199 | 11.3 | 29.0 | 0.00 | 0.03 | 0.03 | 85 | 1009.3 |
| 20260506190030 | 13 | 167 | 14.5 | 27.4 | 0.00 | 0.03 | 0.03 | 84 | 1009.4 |
| 20260506184529 | 13 | 149 | 12.9 | 30.6 | 0.00 | 0.03 | 0.03 | 85 | 1009.5 |
| 20260506183030 | 13 | 182 | 9.7 | 24.1 | 0.00 | 0.03 | 0.03 | 85 | 1009.6 |
| 20260506181528 | 13 | 234 | 14.5 | 24.1 | 0.00 | 0.03 | 0.03 | 85 | 1009.6 |
| 20260506180027 | 13 | 176 | 14.5 | 35.4 | 0.00 | 0.03 | 0.03 | 85 | 1009.7 |